Toone, TN

8:27 AM CST en Noviembre 28, 2014 (GMT -0600)
Dyersburg Municipal | Change Station
CLOSE
Current Station
Aeropuerto
Location: Dyersburg,
Altura: 338 ft
Estaciones meteorológicas cercanas

Alt 338 ft 36.00 °N, 89.41 °W | Updated 12 minutes ago

Despejado
Despejado
32 ° F
Sensación térmica 26 ° F
N
7
Viento Variable Viento desde Sur

Hoy
Alta -- | Baja -- ° F
--% Posibilidad de precipitaciones
Ayer
Alta -- | Baja -- ° F
Precip. -- pul
6:43 AM 4:43 PM
Creciente, 41% visible
Presión 30.41 pul
Visibilidad 10.0 Millas
Nubes Despejado
Vientos helados 26 ° F
Punto de rocío 16 ° F
Humedad 51%
Precipitaciones 0.00 pul
Espesor de la nieve No disponible.
UV 1 de una escala de 12
Polen .30 de una escala de 12
Calidad del aire No disponible.
Flu Activity No disponible.
METAR KDYR 281415Z 17006KT 10SM CLR 00/M09 A3041 RMK AO1

More Conditions Fewer Conditions

Presión 30.41 pul
Visibilidad 10.0 Millas
Nubes Despejado
Vientos helados 26 ° F
Punto de rocío 16 ° F
Humedad 51%
Precipitaciones 0.00 pul
Espesor de la nieve No disponible.
UV 1 de una escala de 12
Polen .30 de una escala de 12
Calidad del aire No disponible.
Flu Activity No disponible.
METAR KDYR 281415Z 17006KT 10SM CLR 00/M09 A3041 RMK AO1

More Conditions Fewer Conditions

10-Day Weather Forecast

Almanac

Astronomía

Nov. 28, 2014 Salida Puesta
Hora real
Crepúsculo civil
Crepúsculo náutico
Crepúsculo astronómico
Luna
Horas de luz
Horas de luz
Tomorrow will be .
, % of the Moon is Illuminated

Extremos de hoy

Máximos del estado Bajos del estado

Community

WunderPhotos

Upload Photos

1,774,213 ¡fotos cargadas!

WunderBlogs® & News

Nearby

Calidad del aire

  Calidad del aire Índice AQ Contaminante
Not available.

Grosos de nieve

Estación Profundido Altura

Actividad de terremotos

Ciudad Distance Mag. Tiempo y dato
Magnitud mínima muestra es 2,5.

Temperaturas de aguas costeras

Lugar Temperatura

Estaciones meteorológicas cercanas